createdAt,value
2018-06-03T00:00:48.017Z,15.70
2018-06-03T00:03:15.329Z,15.60
2018-06-03T00:05:42.353Z,15.40
2018-06-03T00:08:08.712Z,15.40
2018-06-03T00:10:35.740Z,15.50
2018-06-03T00:13:02.048Z,15.40
2018-06-03T00:15:28.345Z,15.50
2018-06-03T00:17:54.671Z,15.50
2018-06-03T00:20:33.189Z,15.50
2018-06-03T00:22:59.580Z,15.50
2018-06-03T00:25:25.869Z,15.50
2018-06-03T00:27:52.206Z,15.50
2018-06-03T00:30:18.500Z,15.50
2018-06-03T00:32:44.825Z,15.50
2018-06-03T00:35:11.838Z,15.40
2018-06-03T00:37:38.161Z,15.40
2018-06-03T00:40:04.449Z,15.40
2018-06-03T00:42:30.740Z,15.40
2018-06-03T00:44:58.049Z,15.40
2018-06-03T00:47:24.374Z,15.30
2018-06-03T00:49:50.657Z,15.30
2018-06-03T00:52:16.954Z,15.20
2018-06-03T00:54:43.293Z,15.20
2018-06-03T00:57:09.656Z,15.20
2018-06-03T00:59:36.707Z,15.10
2018-06-03T01:02:03.765Z,15.00
2018-06-03T01:04:30.065Z,15.00
2018-06-03T01:06:56.377Z,15.00
2018-06-03T01:09:22.679Z,15.00
2018-06-03T01:11:48.989Z,15.00
2018-06-03T01:14:15.289Z,14.90
2018-06-03T01:16:43.077Z,15.10
2018-06-03T01:19:10.153Z,15.10
2018-06-03T01:21:36.488Z,15.00
2018-06-03T01:24:02.801Z,15.00
2018-06-03T01:26:29.124Z,14.90
2018-06-03T01:28:55.435Z,14.90
2018-06-03T01:31:22.509Z,15.00
2018-06-03T01:33:48.784Z,14.90
2018-06-03T01:36:15.094Z,14.80
2018-06-03T01:38:41.398Z,14.80
2018-06-03T01:41:07.704Z,14.70
2018-06-03T01:43:34.732Z,14.80
2018-06-03T01:46:02.038Z,14.70
2018-06-03T01:48:28.321Z,14.80
2018-06-03T01:50:56.361Z,14.80
2018-06-03T01:53:23.749Z,14.80
2018-06-03T01:55:50.045Z,14.80
2018-06-03T01:58:16.330Z,14.80
2018-06-03T02:00:43.397Z,14.80
2018-06-03T02:03:09.689Z,14.80
2018-06-03T02:05:35.981Z,14.80
2018-06-03T02:08:02.301Z,14.70
2018-06-03T02:10:28.611Z,14.60
2018-06-03T02:12:54.908Z,14.60
2018-06-03T02:15:21.190Z,14.60
2018-06-03T02:17:47.513Z,14.40
2018-06-03T02:20:13.825Z,14.30
2018-06-03T02:22:40.849Z,14.30
2018-06-03T02:25:07.169Z,14.30
2018-06-03T02:27:33.457Z,14.40
2018-06-03T02:29:59.769Z,13.10
2018-06-03T02:32:26.804Z,13.70
2018-06-03T02:34:53.866Z,14.40
2018-06-03T02:37:20.158Z,14.30
2018-06-03T02:39:46.473Z,14.40
2018-06-03T02:42:12.766Z,14.40
2018-06-03T02:44:39.065Z,14.40
2018-06-03T02:47:05.455Z,14.40
2018-06-03T02:49:31.761Z,14.40
2018-06-03T02:51:58.064Z,14.40
2018-06-03T02:54:25.089Z,14.30
2018-06-03T02:56:51.393Z,14.30
2018-06-03T02:59:17.684Z,14.30
2018-06-03T03:01:43.993Z,14.20
2018-06-03T03:04:11.045Z,14.30
2018-06-03T03:06:38.060Z,14.40
2018-06-03T03:09:04.393Z,14.30
2018-06-03T03:11:30.697Z,14.40
2018-06-03T03:13:56.998Z,14.40
2018-06-03T03:16:23.305Z,14.40
2018-06-03T03:18:49.585Z,14.40
2018-06-03T03:21:15.941Z,14.40
2018-06-03T03:23:42.246Z,14.40
2018-06-03T03:26:08.557Z,14.40
2018-06-03T03:28:35.493Z,14.30
2018-06-03T03:31:02.529Z,14.30
2018-06-03T03:33:30.202Z,14.40
2018-06-03T03:35:57.243Z,14.40
2018-06-03T03:38:24.278Z,14.30
2018-06-03T03:40:51.317Z,14.30
2018-06-03T03:43:17.625Z,14.30
2018-06-03T03:45:43.935Z,14.30
2018-06-03T03:48:11.264Z,14.30
2018-06-03T03:50:37.581Z,14.20
2018-06-03T03:53:04.620Z,14.20
2018-06-03T03:55:31.640Z,14.20
2018-06-03T03:57:57.965Z,14.20
2018-06-03T04:00:24.289Z,14.30
2018-06-03T04:02:50.592Z,14.40
2018-06-03T04:05:16.904Z,14.40
2018-06-03T04:07:43.930Z,14.60
2018-06-03T04:10:11.000Z,14.70
2018-06-03T04:12:38.028Z,14.70
2018-06-03T04:15:04.385Z,14.70
2018-06-03T04:17:30.720Z,14.70
2018-06-03T04:20:37.409Z,14.80
2018-06-03T04:23:05.040Z,14.80
2018-06-03T04:25:32.639Z,14.80
2018-06-03T04:28:00.229Z,14.80
2018-06-03T04:30:27.806Z,14.80
2018-06-03T04:32:55.422Z,14.90
2018-06-03T04:35:23.001Z,14.80
2018-06-03T04:37:50.618Z,14.90
2018-06-03T04:40:18.248Z,15.10
2018-06-03T04:42:45.854Z,15.10
2018-06-03T04:45:15.751Z,15.00
2018-06-03T04:47:43.345Z,15.10
2018-06-03T04:50:10.924Z,15.10
2018-06-03T04:52:38.548Z,15.10
2018-06-03T04:55:06.188Z,15.20
2018-06-03T04:57:33.725Z,15.30
2018-06-03T05:00:01.329Z,15.40
2018-06-03T05:02:28.912Z,15.40
2018-06-03T05:04:56.617Z,15.50
2018-06-03T05:07:24.701Z,15.60
2018-06-03T05:12:19.806Z,15.80
2018-06-03T05:14:47.409Z,15.90
2018-06-03T05:17:14.969Z,16.00
2018-06-03T05:19:42.881Z,16.00
2018-06-03T05:22:10.489Z,16.20
2018-06-03T05:24:38.073Z,16.30
2018-06-03T05:27:05.648Z,16.20
2018-06-03T05:29:33.221Z,16.40
2018-06-03T05:32:01.529Z,16.70
2018-06-03T05:34:29.099Z,16.80
2018-06-03T05:36:56.681Z,17.00
2018-06-03T05:39:24.265Z,17.20
2018-06-03T05:41:51.829Z,17.20
2018-06-03T05:44:19.424Z,17.40
2018-06-03T05:46:47.002Z,17.50
2018-06-03T05:49:14.584Z,17.70
2018-06-03T05:51:42.180Z,17.90
2018-06-03T05:54:10.323Z,18.10
2018-06-03T05:56:37.889Z,18.20
2018-06-03T05:59:05.484Z,18.40
2018-06-03T06:01:33.089Z,18.60
2018-06-03T06:04:00.640Z,18.80
2018-06-03T06:06:28.253Z,19.00
2018-06-03T06:08:56.374Z,19.30
2018-06-03T06:11:23.975Z,19.30
2018-06-03T06:13:51.569Z,19.50
2018-06-03T06:16:19.176Z,19.70
2018-06-03T06:18:46.742Z,19.90
2018-06-03T06:21:14.316Z,20.10
2018-06-03T06:23:42.384Z,20.20
2018-06-03T06:26:09.968Z,20.40
2018-06-03T06:28:37.562Z,20.50
2018-06-03T06:31:05.225Z,20.70
2018-06-03T06:33:32.831Z,20.90
2018-06-03T06:36:01.101Z,21.00
2018-06-03T06:38:28.676Z,21.20
2018-06-03T06:40:56.280Z,21.30
2018-06-03T06:43:23.872Z,21.50
2018-06-03T06:45:51.444Z,21.50
2018-06-03T06:48:19.025Z,21.70
2018-06-03T06:50:46.618Z,22.00
2018-06-03T06:53:14.204Z,22.20
2018-06-03T06:55:41.788Z,22.40
2018-06-03T06:58:09.399Z,22.40
2018-06-03T07:00:36.968Z,22.40
2018-06-03T07:03:04.568Z,22.40
2018-06-03T07:05:32.117Z,22.50
2018-06-03T07:08:00.860Z,22.40
2018-06-03T07:12:56.486Z,22.50
2018-06-03T07:15:24.080Z,22.60
2018-06-03T07:17:55.449Z,22.80
2018-06-03T07:20:23.007Z,22.80
2018-06-03T07:22:51.221Z,22.90
2018-06-03T07:25:18.782Z,23.00
2018-06-03T07:27:46.384Z,23.20
2018-06-03T07:30:13.976Z,23.30
2018-06-03T07:32:41.569Z,23.50
2018-06-03T07:35:09.152Z,23.60
2018-06-03T07:37:36.817Z,23.70
2018-06-03T07:42:34.508Z,24.30
2018-06-03T07:45:02.141Z,24.30
2018-06-03T07:47:29.781Z,24.30
2018-06-03T07:49:57.370Z,24.30
2018-06-03T07:52:25.011Z,24.50
2018-06-03T07:54:52.585Z,24.50
2018-06-03T07:57:20.171Z,24.70
2018-06-03T07:59:47.741Z,24.70
2018-06-03T08:02:15.384Z,24.80
2018-06-03T08:04:42.929Z,24.80
2018-06-03T08:07:10.574Z,24.80
2018-06-03T08:09:38.686Z,24.70
2018-06-03T08:12:06.237Z,24.90
2018-06-03T08:14:33.856Z,25.10
2018-06-03T08:17:01.440Z,25.20
2018-06-03T08:19:29.021Z,25.30
2018-06-03T08:21:56.584Z,25.40
2018-06-03T08:24:24.180Z,25.40
2018-06-03T08:26:52.752Z,25.50
2018-06-03T08:29:20.308Z,25.70
2018-06-03T08:31:47.905Z,25.80
2018-06-03T08:34:15.501Z,25.80
2018-06-03T08:36:43.082Z,25.90
2018-06-03T08:39:10.674Z,25.60
2018-06-03T08:41:38.252Z,25.60
2018-06-03T08:44:05.867Z,25.80
2018-06-03T08:46:34.421Z,25.80
2018-06-03T08:49:03.053Z,25.40
2018-06-03T08:51:31.321Z,25.40
2018-06-03T08:53:59.373Z,25.30
2018-06-03T08:56:27.929Z,25.60
2018-06-03T08:58:56.560Z,26.00
2018-06-03T09:01:24.122Z,26.20
2018-06-03T09:03:51.690Z,26.10
2018-06-03T09:06:19.256Z,25.90
2018-06-03T09:08:46.894Z,26.00
2018-06-03T09:11:14.526Z,26.30
2018-06-03T09:13:42.157Z,26.00
2018-06-03T09:16:10.342Z,25.80
2018-06-03T09:18:37.934Z,26.00
2018-06-03T09:21:05.647Z,26.20
2018-06-03T09:23:33.205Z,26.60
2018-06-03T09:26:00.796Z,26.70
2018-06-03T09:28:28.394Z,27.00
2018-06-03T09:31:01.608Z,27.00
2018-06-03T09:33:29.199Z,26.80
2018-06-03T09:35:56.761Z,26.90
2018-06-03T09:38:24.309Z,27.20
2018-06-03T09:40:51.972Z,27.60
2018-06-03T09:43:19.540Z,27.80
2018-06-03T09:45:47.121Z,28.10
2018-06-03T09:48:14.681Z,29.20
2018-06-03T09:50:42.290Z,28.40
2018-06-03T09:53:09.951Z,28.30
2018-06-03T09:58:05.949Z,28.90
2018-06-03T10:00:33.665Z,28.90
2018-06-03T10:03:01.656Z,29.20
2018-06-03T10:05:29.265Z,29.00
2018-06-03T10:07:56.866Z,28.40
2018-06-03T10:10:24.475Z,28.10
2018-06-03T10:12:52.081Z,28.10
2018-06-03T10:15:19.637Z,28.30
2018-06-03T10:17:47.236Z,28.40
2018-06-03T10:20:14.789Z,28.70
2018-06-03T10:22:42.390Z,28.80
2018-06-03T10:25:10.661Z,28.80
2018-06-03T10:27:38.674Z,29.00
2018-06-03T10:30:06.341Z,29.10
2018-06-03T10:32:33.936Z,29.50
2018-06-03T10:35:01.518Z,29.70
2018-06-03T10:37:29.077Z,29.90
2018-06-03T10:39:56.696Z,30.40
2018-06-03T10:42:24.216Z,30.70
2018-06-03T10:44:51.775Z,31.10
2018-06-03T10:47:19.353Z,31.30
2018-06-03T10:49:46.917Z,31.30
2018-06-03T10:52:14.512Z,31.20
2018-06-03T10:54:42.109Z,31.10
2018-06-03T10:57:09.703Z,31.10
2018-06-03T10:59:37.259Z,31.00
2018-06-03T11:02:04.805Z,30.70
2018-06-03T11:04:32.418Z,30.40
2018-06-03T11:06:59.961Z,30.00
2018-06-03T11:09:27.546Z,29.40
2018-06-03T11:11:55.098Z,28.80
2018-06-03T11:14:22.697Z,28.50
2018-06-03T11:16:50.304Z,28.10
2018-06-03T11:19:17.849Z,27.80
2018-06-03T11:24:13.465Z,27.40
2018-06-03T11:26:41.076Z,27.40
2018-06-03T11:29:08.665Z,27.70
2018-06-03T11:31:36.257Z,28.10
2018-06-03T11:34:03.807Z,28.30
2018-06-03T11:36:31.397Z,28.20
2018-06-03T11:38:58.993Z,28.10
2018-06-03T11:41:27.582Z,28.20
2018-06-03T11:43:55.160Z,28.60
2018-06-03T11:46:22.806Z,29.40
2018-06-03T11:48:50.393Z,29.40
2018-06-03T11:51:17.953Z,29.30
2018-06-03T11:53:47.184Z,29.40
2018-06-03T11:56:15.589Z,29.70
2018-06-03T11:58:55.007Z,29.80
2018-06-03T12:06:19.335Z,30.10
2018-06-03T12:08:46.933Z,29.80
2018-06-03T12:11:14.508Z,29.80
2018-06-03T12:13:42.089Z,30.00
2018-06-03T12:18:37.130Z,31.00
2018-06-03T12:21:04.766Z,31.60
2018-06-03T12:23:32.317Z,32.00
2018-06-03T12:25:59.877Z,32.10
2018-06-03T12:28:27.494Z,32.30
2018-06-03T12:30:55.065Z,32.40
2018-06-03T12:33:22.740Z,32.90
2018-06-03T12:35:50.321Z,33.70
2018-06-03T12:38:17.885Z,34.10
2018-06-03T12:43:14.120Z,35.40
2018-06-03T12:45:41.710Z,35.70
2018-06-03T12:48:09.286Z,35.70
2018-06-03T12:50:36.840Z,35.60
2018-06-03T12:53:04.717Z,34.60
2018-06-03T12:55:32.352Z,34.00
2018-06-03T12:57:59.957Z,34.10
2018-06-03T13:00:27.556Z,34.70
2018-06-03T13:02:55.158Z,35.20
2018-06-03T13:05:24.652Z,35.50
2018-06-03T13:07:58.871Z,35.90
2018-06-03T13:10:27.132Z,36.70
2018-06-03T13:12:54.733Z,37.20
2018-06-03T13:15:22.322Z,37.10
2018-06-03T13:17:49.899Z,36.20
2018-06-03T13:20:17.496Z,34.90
2018-06-03T13:22:45.069Z,33.30
2018-06-03T13:25:12.641Z,33.10
2018-06-03T13:27:40.251Z,33.90
2018-06-03T13:30:07.834Z,34.70
2018-06-03T13:32:35.425Z,34.90
2018-06-03T13:35:03.129Z,34.80
2018-06-03T13:37:30.721Z,35.00
2018-06-03T13:39:58.441Z,35.20
2018-06-03T13:42:26.107Z,35.20
2018-06-03T13:44:53.692Z,35.20
2018-06-03T13:49:48.800Z,35.30
2018-06-03T13:52:16.389Z,35.70
2018-06-03T13:54:43.949Z,36.20
2018-06-03T13:57:11.509Z,36.70
2018-06-03T13:59:39.101Z,36.70
2018-06-03T14:02:07.760Z,36.50
2018-06-03T14:04:35.305Z,36.50
2018-06-03T14:07:03.932Z,36.50
2018-06-03T14:09:32.216Z,36.40
2018-06-03T14:12:00.489Z,36.90
2018-06-03T14:14:28.093Z,37.80
2018-06-03T14:16:56.362Z,37.80
2018-06-03T14:19:24.126Z,36.60
2018-06-03T14:21:51.734Z,35.70
2018-06-03T14:24:19.305Z,35.10
2018-06-03T14:26:46.933Z,35.20
2018-06-03T14:29:14.482Z,35.40
2018-06-03T14:31:42.110Z,35.70
2018-06-03T14:34:09.769Z,36.10
2018-06-03T14:36:37.350Z,35.70
2018-06-03T14:39:07.690Z,35.40
2018-06-03T14:41:35.301Z,34.60
2018-06-03T14:44:02.848Z,34.10
2018-06-03T14:46:30.461Z,33.80
2018-06-03T14:48:58.013Z,33.80
2018-06-03T14:51:25.606Z,34.30
2018-06-03T14:53:53.207Z,35.00
2018-06-03T14:56:20.781Z,36.20
2018-06-03T14:58:48.970Z,36.90
2018-06-03T15:01:17.316Z,37.90
2018-06-03T15:03:44.883Z,38.60
2018-06-03T15:06:13.141Z,38.80
2018-06-03T15:08:40.724Z,37.90
2018-06-03T15:11:08.266Z,36.80
2018-06-03T15:13:35.951Z,36.20
2018-06-03T15:16:03.529Z,35.20
2018-06-03T15:18:31.137Z,35.00
2018-06-03T15:20:58.872Z,35.90
2018-06-03T15:23:26.445Z,36.80
2018-06-03T15:25:54.030Z,36.70
2018-06-03T15:28:21.597Z,36.50
2018-06-03T15:33:18.165Z,36.80
2018-06-03T15:38:13.229Z,37.00
2018-06-03T15:40:40.864Z,37.50
2018-06-03T15:45:37.978Z,37.60
2018-06-03T15:48:05.539Z,36.90
2018-06-03T15:50:33.139Z,36.10
2018-06-03T15:53:00.696Z,35.60
2018-06-03T15:55:28.262Z,35.00
2018-06-03T15:57:55.869Z,33.90
2018-06-03T16:00:23.448Z,33.30
2018-06-03T16:02:51.091Z,32.90
2018-06-03T16:05:19.699Z,32.60
2018-06-03T16:07:47.278Z,32.60
2018-06-03T16:10:14.889Z,32.70
2018-06-03T16:12:42.689Z,32.90
2018-06-03T16:15:10.242Z,33.00
2018-06-03T16:17:38.424Z,33.20
2018-06-03T16:20:06.589Z,33.60
2018-06-03T16:22:34.173Z,34.00
2018-06-03T16:25:02.457Z,34.60
2018-06-03T16:27:30.040Z,35.40
2018-06-03T16:29:57.638Z,35.70
2018-06-03T16:32:26.109Z,36.30
2018-06-03T16:34:53.711Z,36.70
2018-06-03T16:37:21.309Z,36.90
2018-06-03T16:42:16.542Z,37.70
2018-06-03T16:44:44.195Z,38.10
2018-06-03T16:47:11.764Z,38.50
2018-06-03T16:49:39.342Z,39.10
2018-06-03T16:52:07.016Z,39.10
2018-06-03T16:54:35.729Z,39.30
2018-06-03T16:57:03.262Z,38.80
2018-06-03T16:59:30.821Z,38.70
2018-06-03T17:01:58.444Z,39.00
2018-06-03T17:04:26.094Z,38.80
2018-06-03T17:09:21.263Z,37.90
2018-06-03T17:11:48.841Z,36.70
2018-06-03T17:14:17.181Z,34.90
2018-06-03T17:16:45.763Z,33.60
2018-06-03T17:19:13.348Z,32.70
2018-06-03T17:21:41.961Z,31.70
2018-06-03T17:24:09.535Z,31.20
2018-06-03T17:26:37.095Z,30.70
2018-06-03T17:29:04.672Z,30.00
2018-06-03T17:31:32.225Z,29.60
2018-06-03T17:33:59.821Z,29.20
2018-06-03T17:36:27.363Z,28.80
2018-06-03T17:38:54.953Z,28.60
2018-06-03T17:41:23.149Z,28.40
2018-06-03T17:43:50.745Z,28.00
2018-06-03T17:46:18.461Z,28.00
2018-06-03T17:48:46.117Z,27.70
2018-06-03T17:51:13.673Z,27.40
2018-06-03T17:53:41.357Z,27.20
2018-06-03T17:56:08.917Z,27.00
2018-06-03T17:58:36.513Z,26.90
2018-06-03T18:01:04.109Z,26.50
2018-06-03T18:03:33.273Z,26.30
2018-06-03T18:06:00.896Z,26.10
2018-06-03T18:08:28.489Z,25.90
2018-06-03T18:10:56.045Z,25.70
2018-06-03T18:13:23.689Z,25.50
2018-06-03T18:15:52.269Z,25.50
2018-06-03T18:18:19.844Z,25.50
2018-06-03T18:20:47.404Z,25.40
2018-06-03T18:23:15.710Z,25.20
2018-06-03T18:25:43.281Z,25.10
2018-06-03T18:28:10.964Z,24.90
2018-06-03T18:30:38.566Z,24.80
2018-06-03T18:33:06.149Z,24.60
2018-06-03T18:35:33.707Z,24.50
2018-06-03T18:38:01.301Z,24.50
2018-06-03T18:40:28.848Z,24.50
2018-06-03T18:42:56.413Z,24.30
2018-06-03T18:45:24.020Z,24.30
2018-06-03T18:50:19.102Z,24.00
2018-06-03T18:52:47.461Z,23.90
2018-06-03T18:55:15.037Z,23.80
2018-06-03T18:57:42.634Z,23.70
2018-06-03T19:00:10.185Z,23.50
2018-06-03T19:02:37.779Z,23.40
2018-06-03T19:05:05.715Z,23.30
2018-06-03T19:07:33.364Z,23.20
2018-06-03T19:10:01.463Z,23.00
2018-06-03T19:12:29.125Z,22.90
2018-06-03T19:14:56.686Z,22.80
2018-06-03T19:17:24.326Z,22.70
2018-06-03T19:19:51.952Z,22.60
2018-06-03T19:22:19.544Z,22.40
2018-06-03T19:24:47.096Z,22.20
2018-06-03T19:27:14.708Z,22.10
2018-06-03T19:29:42.257Z,22.00
2018-06-03T19:32:09.881Z,21.90
2018-06-03T19:34:37.440Z,21.90
2018-06-03T19:37:05.228Z,21.80
2018-06-03T19:39:32.791Z,21.60
2018-06-03T19:42:00.429Z,21.20
2018-06-03T19:44:28.022Z,20.70
2018-06-03T19:46:55.620Z,20.50
2018-06-03T19:49:23.173Z,20.30
2018-06-03T19:51:50.824Z,20.30
2018-06-03T19:54:18.480Z,20.10
2018-06-03T19:56:46.149Z,20.20
2018-06-03T19:59:13.737Z,20.20
2018-06-03T20:01:41.320Z,20.10
2018-06-03T20:04:08.924Z,20.00
2018-06-03T20:06:36.538Z,19.80
2018-06-03T20:09:06.506Z,19.70
2018-06-03T20:11:34.080Z,19.50
2018-06-03T20:14:01.677Z,19.40
2018-06-03T20:16:30.268Z,19.30
2018-06-03T20:18:57.829Z,19.20
2018-06-03T20:21:25.400Z,19.20
2018-06-03T20:23:52.989Z,19.10
2018-06-03T20:26:20.697Z,19.10
2018-06-03T20:28:48.305Z,19.10
2018-06-03T20:31:15.922Z,19.00
2018-06-03T20:33:43.514Z,18.90
2018-06-03T20:36:11.103Z,18.90
2018-06-03T20:38:38.705Z,18.80
2018-06-03T20:41:06.336Z,18.80
2018-06-03T20:43:33.908Z,18.70
2018-06-03T20:46:01.517Z,18.70
2018-06-03T20:48:29.088Z,18.80
2018-06-03T20:50:56.652Z,18.70
2018-06-03T20:53:24.237Z,18.70
2018-06-03T20:55:52.356Z,18.50
2018-06-03T20:58:19.939Z,18.50
2018-06-03T21:00:47.497Z,18.40
2018-06-03T21:03:15.094Z,18.30
2018-06-03T21:05:43.956Z,18.10
2018-06-03T21:08:11.577Z,18.20
2018-06-03T21:13:06.677Z,17.80
2018-06-03T21:15:34.260Z,17.80
2018-06-03T21:18:01.867Z,17.60
2018-06-03T21:20:29.425Z,17.50
2018-06-03T21:22:57.036Z,17.60
2018-06-03T21:25:24.605Z,17.60
2018-06-03T21:27:53.220Z,17.70
2018-06-03T21:30:20.796Z,17.80
2018-06-03T21:32:48.445Z,16.60
2018-06-03T21:35:16.032Z,17.70
2018-06-03T21:37:44.625Z,17.60
2018-06-03T21:40:12.185Z,17.50
2018-06-03T21:42:39.789Z,17.50
2018-06-03T21:45:07.356Z,17.50
2018-06-03T21:47:34.958Z,17.30
2018-06-03T21:50:02.521Z,17.30
2018-06-03T21:52:30.177Z,17.30
2018-06-03T21:54:57.785Z,17.20
2018-06-03T21:57:25.392Z,17.20
2018-06-03T21:59:52.965Z,17.40
2018-06-03T22:02:20.541Z,17.20
2018-06-03T22:04:48.114Z,17.30
2018-06-03T22:07:15.731Z,17.30
2018-06-03T22:09:43.307Z,17.40
2018-06-03T22:12:10.945Z,17.30
2018-06-03T22:14:38.592Z,17.40
2018-06-03T22:17:06.180Z,17.30
2018-06-03T22:19:33.789Z,17.20
2018-06-03T22:22:01.377Z,17.10
2018-06-03T22:24:28.978Z,17.10
2018-06-03T22:26:56.585Z,16.90
2018-06-03T22:29:24.181Z,16.80
2018-06-03T22:31:51.761Z,16.70
2018-06-03T22:34:19.705Z,16.80
2018-06-03T22:36:47.301Z,16.80
2018-06-03T22:39:14.881Z,16.80
2018-06-03T22:44:10.975Z,16.70
2018-06-03T22:46:38.568Z,16.60
2018-06-03T22:49:06.169Z,16.60
2018-06-03T22:51:33.793Z,16.50
2018-06-03T22:54:01.361Z,16.50
2018-06-03T22:56:40.553Z,16.50
2018-06-03T22:59:08.129Z,16.40
2018-06-03T23:01:36.405Z,16.40
2018-06-03T23:04:03.989Z,16.40
2018-06-03T23:08:59.069Z,16.30
2018-06-03T23:11:26.678Z,16.30
2018-06-03T23:13:54.240Z,16.30
2018-06-03T23:16:21.872Z,16.40
2018-06-03T23:18:49.449Z,16.40
2018-06-03T23:21:18.045Z,16.40
2018-06-03T23:26:13.120Z,16.40
2018-06-03T23:28:40.713Z,16.30
2018-06-03T23:31:08.324Z,16.20
2018-06-03T23:33:35.913Z,16.10
2018-06-03T23:36:03.497Z,16.10
2018-06-03T23:38:31.063Z,16.00
2018-06-03T23:40:58.647Z,16.00
2018-06-03T23:43:26.216Z,16.00
2018-06-03T23:45:53.828Z,16.10
2018-06-03T23:48:21.413Z,15.90
2018-06-03T23:50:49.037Z,15.80
2018-06-03T23:53:16.600Z,15.80
2018-06-03T23:55:44.182Z,15.70
2018-06-03T23:58:11.752Z,15.70
